createdAt,value
2018-10-16T00:00:05.281Z,15.90
2018-10-16T00:01:10.805Z,15.90
2018-10-16T00:02:16.329Z,15.90
2018-10-16T00:03:21.750Z,15.90
2018-10-16T00:04:27.181Z,15.90
2018-10-16T00:05:32.625Z,15.80
2018-10-16T00:06:38.092Z,15.90
2018-10-16T00:07:46.435Z,15.90
2018-10-16T00:08:51.909Z,15.80
2018-10-16T00:09:57.409Z,15.80
2018-10-16T00:11:02.827Z,15.80
2018-10-16T00:12:09.332Z,15.80
2018-10-16T00:13:14.948Z,15.80
2018-10-16T00:14:20.406Z,15.80
2018-10-16T00:15:25.876Z,15.80
2018-10-16T00:16:31.324Z,15.80
2018-10-16T00:17:36.774Z,15.80
2018-10-16T00:18:42.181Z,15.80
2018-10-16T00:19:47.637Z,15.80
2018-10-16T00:20:53.102Z,15.80
2018-10-16T00:21:58.709Z,15.80
2018-10-16T00:23:04.211Z,15.80
2018-10-16T00:24:09.726Z,15.80
2018-10-16T00:25:17.493Z,15.80
2018-10-16T00:26:22.992Z,15.80
2018-10-16T00:27:28.621Z,15.90
2018-10-16T00:28:34.188Z,15.90
2018-10-16T00:29:39.635Z,15.90
2018-10-16T00:30:45.209Z,15.90
2018-10-16T00:31:50.807Z,15.90
2018-10-16T00:32:56.220Z,15.80
2018-10-16T00:34:01.730Z,15.80
2018-10-16T00:35:07.226Z,15.80
2018-10-16T00:36:12.713Z,15.70
2018-10-16T00:37:18.340Z,15.80
2018-10-16T00:38:23.753Z,15.80
2018-10-16T00:39:29.200Z,15.70
2018-10-16T00:40:34.680Z,15.70
2018-10-16T00:41:40.919Z,15.70
2018-10-16T00:42:46.424Z,15.70
2018-10-16T00:43:51.920Z,15.70
2018-10-16T00:44:57.338Z,15.60
2018-10-16T00:46:02.788Z,15.70
2018-10-16T00:47:08.269Z,15.70
2018-10-16T00:48:13.701Z,15.60
2018-10-16T00:49:19.221Z,15.60
2018-10-16T00:50:24.691Z,15.60
2018-10-16T00:51:30.197Z,15.60
2018-10-16T00:52:35.762Z,15.60
2018-10-16T00:53:41.156Z,15.60
2018-10-16T00:54:46.692Z,15.60
2018-10-16T00:55:52.159Z,15.60
2018-10-16T00:56:57.609Z,15.60
2018-10-16T00:58:03.080Z,15.60
2018-10-16T00:59:08.880Z,15.60
2018-10-16T01:00:14.458Z,15.60
2018-10-16T01:01:24.036Z,15.60
2018-10-16T01:02:29.461Z,15.60
2018-10-16T01:03:35.008Z,15.70
2018-10-16T01:04:40.413Z,15.60
2018-10-16T01:05:46.939Z,15.60
2018-10-16T01:06:52.388Z,15.70
2018-10-16T01:07:57.845Z,15.70
2018-10-16T01:09:04.410Z,15.60
2018-10-16T01:10:11.153Z,15.60
2018-10-16T01:11:16.707Z,15.70
2018-10-16T01:12:22.111Z,15.60
2018-10-16T01:13:27.516Z,15.60
2018-10-16T01:14:32.970Z,15.60
2018-10-16T01:15:38.444Z,15.60
2018-10-16T01:16:43.940Z,15.60
2018-10-16T01:17:49.419Z,15.50
2018-10-16T01:18:54.854Z,15.50
2018-10-16T01:20:00.413Z,15.50
2018-10-16T01:21:06.562Z,15.40
2018-10-16T01:22:12.062Z,15.40
2018-10-16T01:23:17.804Z,15.40
2018-10-16T01:24:23.261Z,15.30
2018-10-16T01:25:28.710Z,15.30
2018-10-16T01:26:34.266Z,15.30
2018-10-16T01:27:40.106Z,15.30
2018-10-16T01:28:45.842Z,15.20
2018-10-16T01:29:51.297Z,15.30
2018-10-16T01:30:56.876Z,15.20
2018-10-16T01:32:02.332Z,15.20
2018-10-16T01:33:07.758Z,15.20
2018-10-16T01:34:13.178Z,15.20
2018-10-16T01:35:18.614Z,15.20
2018-10-16T01:36:24.120Z,15.20
2018-10-16T01:37:29.940Z,15.20
2018-10-16T01:38:35.369Z,15.20
2018-10-16T01:39:40.829Z,15.20
2018-10-16T01:40:46.368Z,15.20
2018-10-16T01:41:51.800Z,15.20
2018-10-16T01:42:57.335Z,15.20
2018-10-16T01:44:03.105Z,15.10
2018-10-16T01:45:09.394Z,15.10
2018-10-16T01:46:14.865Z,15.10
2018-10-16T01:47:20.382Z,15.10
2018-10-16T01:48:25.868Z,15.10
2018-10-16T01:49:31.306Z,15.10
2018-10-16T01:50:36.844Z,15.10
2018-10-16T01:51:42.314Z,15.10
2018-10-16T01:52:47.770Z,15.10
2018-10-16T01:53:53.272Z,15.00
2018-10-16T01:54:58.736Z,15.00
2018-10-16T01:56:04.210Z,15.10
2018-10-16T01:57:09.641Z,15.10
2018-10-16T01:58:15.110Z,15.10
2018-10-16T01:59:20.730Z,15.00
2018-10-16T02:00:26.189Z,15.10
2018-10-16T02:01:31.690Z,15.00
2018-10-16T02:02:37.195Z,15.00
2018-10-16T02:03:42.598Z,15.00
2018-10-16T02:04:48.051Z,15.00
2018-10-16T02:05:53.525Z,15.00
2018-10-16T02:06:59.002Z,15.00
2018-10-16T02:08:04.969Z,15.00
2018-10-16T02:09:12.353Z,15.00
2018-10-16T02:10:17.928Z,14.90
2018-10-16T02:11:23.358Z,14.90
2018-10-16T02:12:28.835Z,14.90
2018-10-16T02:13:34.262Z,14.90
2018-10-16T02:14:39.845Z,14.90
2018-10-16T02:15:45.329Z,14.90
2018-10-16T02:16:50.810Z,14.90
2018-10-16T02:17:56.353Z,14.90
2018-10-16T02:19:01.743Z,14.80
2018-10-16T02:20:08.037Z,14.90
2018-10-16T02:21:13.525Z,14.90
2018-10-16T02:22:19.094Z,14.80
2018-10-16T02:23:24.657Z,14.90
2018-10-16T02:24:30.146Z,14.90
2018-10-16T02:25:35.557Z,14.90
2018-10-16T02:26:41.098Z,14.90
2018-10-16T02:27:46.746Z,14.90
2018-10-16T02:28:52.241Z,14.90
2018-10-16T02:29:57.737Z,14.90
2018-10-16T02:31:03.309Z,14.90
2018-10-16T02:32:08.854Z,14.90
2018-10-16T02:33:14.309Z,14.90
2018-10-16T02:34:19.712Z,14.90
2018-10-16T02:35:25.197Z,14.90
2018-10-16T02:36:30.630Z,14.90
2018-10-16T02:37:36.402Z,15.00
2018-10-16T02:38:41.913Z,15.00
2018-10-16T02:39:47.369Z,15.00
2018-10-16T02:40:52.896Z,15.00
2018-10-16T02:41:58.345Z,15.00
2018-10-16T02:43:03.824Z,14.90
2018-10-16T02:44:09.906Z,14.90
2018-10-16T02:45:15.382Z,14.90
2018-10-16T02:46:20.861Z,14.90
2018-10-16T02:47:26.517Z,14.90
2018-10-16T02:48:31.945Z,14.90
2018-10-16T02:49:37.344Z,14.80
2018-10-16T02:50:42.806Z,14.80
2018-10-16T02:51:48.401Z,14.80
2018-10-16T02:52:53.856Z,14.80
2018-10-16T02:53:59.296Z,14.70
2018-10-16T02:55:04.998Z,14.70
2018-10-16T02:56:10.448Z,14.70
2018-10-16T02:57:15.993Z,14.60
2018-10-16T02:58:21.524Z,14.60
2018-10-16T02:59:27.501Z,14.60
2018-10-16T03:00:32.985Z,14.50
2018-10-16T03:01:38.454Z,14.50
2018-10-16T03:02:43.881Z,14.40
2018-10-16T03:03:49.284Z,14.50
2018-10-16T03:04:54.708Z,14.40
2018-10-16T03:06:00.260Z,14.40
2018-10-16T03:07:05.959Z,14.30
2018-10-16T03:08:11.414Z,14.30
2018-10-16T03:09:16.808Z,14.30
2018-10-16T03:10:22.319Z,14.30
2018-10-16T03:11:27.801Z,14.30
2018-10-16T03:12:33.328Z,14.20
2018-10-16T03:13:38.983Z,14.30
2018-10-16T03:14:44.424Z,14.20
2018-10-16T03:15:49.984Z,14.20
2018-10-16T03:16:55.523Z,14.20
2018-10-16T03:18:00.951Z,14.20
2018-10-16T03:19:06.540Z,14.20
2018-10-16T03:20:12.351Z,14.20
2018-10-16T03:21:17.842Z,14.20
2018-10-16T03:22:23.298Z,14.20
2018-10-16T03:23:28.766Z,14.20
2018-10-16T03:24:34.265Z,14.20
2018-10-16T03:25:39.839Z,14.20
2018-10-16T03:26:48.104Z,14.20
2018-10-16T03:27:53.566Z,14.20
2018-10-16T03:28:58.968Z,14.20
2018-10-16T03:30:04.751Z,14.20
2018-10-16T03:31:10.320Z,14.20
2018-10-16T03:32:15.834Z,14.20
2018-10-16T03:33:21.297Z,14.20
2018-10-16T03:34:26.802Z,14.20
2018-10-16T03:35:32.395Z,14.20
2018-10-16T03:36:38.597Z,14.20
2018-10-16T03:37:44.166Z,14.20
2018-10-16T03:38:49.580Z,14.10
2018-10-16T03:39:55.176Z,14.10
2018-10-16T03:41:00.623Z,14.10
2018-10-16T03:42:06.186Z,14.10
2018-10-16T03:43:11.857Z,14.10
2018-10-16T03:44:17.355Z,14.10
2018-10-16T03:45:22.798Z,14.00
2018-10-16T03:46:28.721Z,14.00
2018-10-16T03:47:34.151Z,14.00
2018-10-16T03:48:39.577Z,13.90
2018-10-16T03:49:45.045Z,13.90
2018-10-16T03:50:50.618Z,13.90
2018-10-16T03:51:56.145Z,13.90
2018-10-16T03:53:01.583Z,13.80
2018-10-16T03:54:07.669Z,13.90
2018-10-16T03:55:13.289Z,13.80
2018-10-16T03:56:18.788Z,13.80
2018-10-16T03:57:24.297Z,13.80
2018-10-16T03:58:29.737Z,13.80
2018-10-16T03:59:35.210Z,13.80
2018-10-16T04:00:40.722Z,13.70
2018-10-16T04:01:46.268Z,13.70
2018-10-16T04:02:51.787Z,13.70
2018-10-16T04:03:57.262Z,13.70
2018-10-16T04:05:02.871Z,13.70
2018-10-16T04:06:08.432Z,13.70
2018-10-16T04:07:13.913Z,13.70
2018-10-16T04:08:19.381Z,13.70
2018-10-16T04:09:24.888Z,13.60
2018-10-16T04:10:30.341Z,13.60
2018-10-16T04:11:36.030Z,13.60
2018-10-16T04:12:41.547Z,13.60
2018-10-16T04:13:47.011Z,13.60
2018-10-16T04:14:52.876Z,13.60
2018-10-16T04:15:58.488Z,13.60
2018-10-16T04:17:03.955Z,13.60
2018-10-16T04:18:09.516Z,13.60
2018-10-16T04:19:15.022Z,13.60
2018-10-16T04:20:20.597Z,13.60
2018-10-16T04:21:30.492Z,13.60
2018-10-16T04:22:36.081Z,13.60
2018-10-16T04:23:42.742Z,13.60
2018-10-16T04:24:48.266Z,13.60
2018-10-16T04:25:53.753Z,13.60
2018-10-16T04:26:59.217Z,13.60
2018-10-16T04:28:04.692Z,13.60
2018-10-16T04:29:10.919Z,13.60
2018-10-16T04:30:16.336Z,13.60
2018-10-16T04:31:21.869Z,13.60
2018-10-16T04:32:27.312Z,13.50
2018-10-16T04:33:32.817Z,13.50
2018-10-16T04:34:38.386Z,13.50
2018-10-16T04:35:43.870Z,13.50
2018-10-16T04:36:49.280Z,13.50
2018-10-16T04:37:54.808Z,13.50
2018-10-16T04:39:00.337Z,13.50
2018-10-16T04:40:06.472Z,13.50
2018-10-16T04:41:11.938Z,13.40
2018-10-16T04:42:17.345Z,13.40
2018-10-16T04:43:22.822Z,13.40
2018-10-16T04:44:28.317Z,13.40
2018-10-16T04:45:33.804Z,13.40
2018-10-16T04:46:39.274Z,13.40
2018-10-16T04:47:44.800Z,13.40
2018-10-16T04:48:50.365Z,13.40
2018-10-16T04:49:55.849Z,13.40
2018-10-16T04:51:01.293Z,13.40
2018-10-16T04:52:06.829Z,13.40
2018-10-16T04:53:12.252Z,13.40
2018-10-16T04:54:17.704Z,13.30
2018-10-16T04:55:23.206Z,13.30
2018-10-16T04:56:28.810Z,13.30
2018-10-16T04:57:34.251Z,13.30
2018-10-16T04:58:39.965Z,13.30
2018-10-16T04:59:45.418Z,13.30
2018-10-16T05:00:50.922Z,13.20
2018-10-16T05:01:56.374Z,13.30
2018-10-16T05:03:02.214Z,13.30
2018-10-16T05:04:08.592Z,13.30
2018-10-16T05:05:20.905Z,13.20
2018-10-16T05:06:26.389Z,13.20
2018-10-16T05:07:31.883Z,13.20
2018-10-16T05:08:37.304Z,13.30
2018-10-16T05:09:42.727Z,13.20
2018-10-16T05:10:48.287Z,13.20
2018-10-16T05:11:55.058Z,13.20
2018-10-16T05:13:00.651Z,13.20
2018-10-16T05:14:06.118Z,13.20
2018-10-16T05:15:22.986Z,13.20
2018-10-16T05:16:28.429Z,13.10
2018-10-16T05:17:33.894Z,13.10
2018-10-16T05:18:39.448Z,13.10
2018-10-16T05:19:44.916Z,13.10
2018-10-16T05:20:50.337Z,13.10
2018-10-16T05:21:55.818Z,13.10
2018-10-16T05:23:01.720Z,13.10
2018-10-16T05:24:08.521Z,13.10
2018-10-16T05:25:14.041Z,13.10
2018-10-16T05:26:19.707Z,13.10
2018-10-16T05:27:25.502Z,13.10
2018-10-16T05:28:30.991Z,13.00
2018-10-16T05:29:36.528Z,13.10
2018-10-16T05:30:42.081Z,13.10
2018-10-16T05:31:47.536Z,13.00
2018-10-16T05:32:53.249Z,13.00
2018-10-16T05:33:58.798Z,13.00
2018-10-16T05:35:04.238Z,13.00
2018-10-16T05:36:09.761Z,13.00
2018-10-16T05:37:15.257Z,13.00
2018-10-16T05:38:20.777Z,13.00
2018-10-16T05:39:26.278Z,13.00
2018-10-16T05:40:31.796Z,13.00
2018-10-16T05:41:39.463Z,13.00
2018-10-16T05:42:44.937Z,13.00
2018-10-16T05:43:50.402Z,13.00
2018-10-16T05:44:55.955Z,13.00
2018-10-16T05:46:01.461Z,13.10
2018-10-16T05:47:07.069Z,13.00
2018-10-16T05:48:12.509Z,13.00
2018-10-16T05:49:18.273Z,13.10
2018-10-16T05:50:23.798Z,13.10
2018-10-16T05:51:29.206Z,13.10
2018-10-16T05:52:34.798Z,13.10
2018-10-16T05:53:40.416Z,13.10
2018-10-16T05:54:45.914Z,13.10
2018-10-16T05:56:03.398Z,13.10
2018-10-16T05:57:08.982Z,13.10
2018-10-16T05:58:14.471Z,13.10
2018-10-16T05:59:19.997Z,13.10
2018-10-16T06:00:38.921Z,13.10
2018-10-16T06:01:44.678Z,13.10
2018-10-16T06:02:50.187Z,13.10
2018-10-16T06:03:55.617Z,13.10
2018-10-16T06:05:01.065Z,13.10
2018-10-16T06:06:06.808Z,13.10
2018-10-16T06:07:12.365Z,13.10
2018-10-16T06:08:17.913Z,13.10
2018-10-16T06:09:23.324Z,13.10
2018-10-16T06:10:28.837Z,13.10
2018-10-16T06:11:34.301Z,13.10
2018-10-16T06:12:39.847Z,13.10
2018-10-16T06:13:45.366Z,13.10
2018-10-16T06:14:50.775Z,13.10
2018-10-16T06:15:56.272Z,13.10
2018-10-16T06:17:01.780Z,13.10
2018-10-16T06:18:07.398Z,13.00
2018-10-16T06:19:12.921Z,13.10
2018-10-16T06:20:18.486Z,13.10
2018-10-16T06:21:24.042Z,13.10
2018-10-16T06:22:29.477Z,13.10
2018-10-16T06:23:34.888Z,13.10
2018-10-16T06:24:40.370Z,13.10
2018-10-16T06:25:45.813Z,13.10
2018-10-16T06:26:51.295Z,13.10
2018-10-16T06:27:56.838Z,13.10
2018-10-16T06:29:02.395Z,13.10
2018-10-16T06:30:08.538Z,13.10
2018-10-16T06:31:14.032Z,13.10
2018-10-16T06:32:19.609Z,13.10
2018-10-16T06:33:26.879Z,13.10
2018-10-16T06:34:32.324Z,13.10
2018-10-16T06:35:37.789Z,13.10
2018-10-16T06:36:43.273Z,13.10
2018-10-16T06:37:48.741Z,13.10
2018-10-16T06:38:54.244Z,13.10
2018-10-16T06:39:59.901Z,13.20
2018-10-16T06:41:06.196Z,13.20
2018-10-16T06:42:11.518Z,13.20
2018-10-16T06:43:17.260Z,13.20
2018-10-16T06:44:22.914Z,13.20
2018-10-16T06:45:28.404Z,13.30
2018-10-16T06:46:33.945Z,13.30
2018-10-16T06:47:39.421Z,13.30
2018-10-16T06:48:45.173Z,13.40
2018-10-16T06:49:50.814Z,13.40
2018-10-16T06:50:56.369Z,13.50
2018-10-16T06:52:01.809Z,13.50
2018-10-16T06:53:07.791Z,13.50
2018-10-16T06:54:13.315Z,13.50
2018-10-16T06:55:18.927Z,13.50
2018-10-16T06:56:24.517Z,13.50
2018-10-16T06:57:30.021Z,13.60
2018-10-16T06:58:35.480Z,13.60
2018-10-16T06:59:40.887Z,13.70
2018-10-16T07:00:46.348Z,13.80
2018-10-16T07:01:51.841Z,13.80
2018-10-16T07:02:57.302Z,13.90
2018-10-16T07:04:02.792Z,14.00
2018-10-16T07:05:09.029Z,14.10
2018-10-16T07:06:14.497Z,14.10
2018-10-16T07:07:20.088Z,14.10
2018-10-16T07:08:25.488Z,14.20
2018-10-16T07:09:31.024Z,14.20
2018-10-16T07:10:36.516Z,14.30
2018-10-16T07:11:42.069Z,14.40
2018-10-16T07:12:47.681Z,14.50
2018-10-16T07:13:53.093Z,14.50
2018-10-16T07:14:58.541Z,14.60
2018-10-16T07:16:04.022Z,14.60
2018-10-16T07:17:09.525Z,14.70
2018-10-16T07:18:15.000Z,14.80
2018-10-16T07:19:20.439Z,14.80
2018-10-16T07:20:25.969Z,14.80
2018-10-16T07:21:31.441Z,14.80
2018-10-16T07:22:36.880Z,14.80
2018-10-16T07:23:42.388Z,14.80
2018-10-16T07:24:47.854Z,14.80
2018-10-16T07:25:53.325Z,14.90
2018-10-16T07:26:58.833Z,14.90
2018-10-16T07:28:04.366Z,14.80
2018-10-16T07:29:10.152Z,14.90
2018-10-16T07:30:16.640Z,14.90
2018-10-16T07:31:22.218Z,14.90
2018-10-16T07:32:27.656Z,15.00
2018-10-16T07:33:33.188Z,15.00
2018-10-16T07:34:38.715Z,15.10
2018-10-16T07:35:44.186Z,15.10
2018-10-16T07:36:49.737Z,15.20
2018-10-16T07:37:55.319Z,15.30
2018-10-16T07:39:00.807Z,15.40
2018-10-16T07:40:07.439Z,15.50
2018-10-16T07:41:13.145Z,15.60
2018-10-16T07:42:18.686Z,15.60
2018-10-16T07:43:24.184Z,15.70
2018-10-16T07:44:29.664Z,15.70
2018-10-16T07:45:35.103Z,15.70
2018-10-16T07:46:40.605Z,15.70
2018-10-16T07:47:46.035Z,15.80
2018-10-16T07:48:51.511Z,15.80
2018-10-16T07:49:57.093Z,15.80
2018-10-16T07:51:02.720Z,15.70
2018-10-16T07:52:08.250Z,15.70
2018-10-16T07:53:13.867Z,15.70
2018-10-16T07:54:19.484Z,15.80
2018-10-16T07:55:24.979Z,15.80
2018-10-16T07:56:30.374Z,15.80
2018-10-16T07:57:35.914Z,15.80
2018-10-16T07:58:41.427Z,15.80
2018-10-16T07:59:46.948Z,15.80
2018-10-16T08:00:52.746Z,15.80
2018-10-16T08:01:58.145Z,15.90
2018-10-16T08:03:03.765Z,15.90
2018-10-16T08:04:09.221Z,16.00
2018-10-16T08:05:14.818Z,16.00
2018-10-16T08:06:20.244Z,16.10
2018-10-16T08:07:25.698Z,16.20
2018-10-16T08:08:31.178Z,16.30
2018-10-16T08:09:36.581Z,16.50
2018-10-16T08:10:42.135Z,16.60
2018-10-16T08:11:48.857Z,16.70
2018-10-16T08:12:54.295Z,16.80
2018-10-16T08:13:59.830Z,16.90
2018-10-16T08:15:06.602Z,17.00
2018-10-16T08:16:12.193Z,17.20
2018-10-16T08:17:17.756Z,17.10
2018-10-16T08:18:23.202Z,17.20
2018-10-16T08:19:28.621Z,17.30
2018-10-16T08:20:34.097Z,17.40
2018-10-16T08:21:39.654Z,17.40
2018-10-16T08:22:45.120Z,17.40
2018-10-16T08:23:50.621Z,17.50
2018-10-16T08:24:56.104Z,17.50
2018-10-16T08:26:01.758Z,17.50
2018-10-16T08:27:07.251Z,17.50
2018-10-16T08:28:12.705Z,17.50
2018-10-16T08:29:18.163Z,17.60
2018-10-16T08:30:23.663Z,17.60
2018-10-16T08:31:29.313Z,17.60
2018-10-16T08:32:34.742Z,17.60
2018-10-16T08:33:40.236Z,17.60
2018-10-16T08:34:45.753Z,17.70
2018-10-16T08:35:51.280Z,17.70
2018-10-16T08:36:56.841Z,17.70
2018-10-16T08:40:12.512Z,17.70
2018-10-16T08:41:18.045Z,17.70
2018-10-16T08:43:44.776Z,17.70
2018-10-16T08:45:32.508Z,17.80
2018-10-16T08:46:54.959Z,17.90
2018-10-16T08:48:17.404Z,17.90
2018-10-16T08:49:39.641Z,18.00
2018-10-16T08:51:01.838Z,18.00
2018-10-16T08:52:07.305Z,18.10
2018-10-16T08:53:12.828Z,18.10
2018-10-16T08:54:18.324Z,18.20
2018-10-16T08:55:23.864Z,18.20
2018-10-16T08:56:29.321Z,18.30
2018-10-16T08:57:34.849Z,18.30
2018-10-16T08:58:40.389Z,18.40
2018-10-16T08:59:45.872Z,18.50
2018-10-16T09:00:51.309Z,18.60
2018-10-16T09:01:56.924Z,18.60
2018-10-16T09:03:02.397Z,18.70
2018-10-16T09:04:07.899Z,18.80
2018-10-16T09:05:13.593Z,18.90
2018-10-16T09:06:19.282Z,19.00
2018-10-16T09:07:24.722Z,19.00
2018-10-16T09:08:30.193Z,19.10
2018-10-16T09:09:35.732Z,19.20
2018-10-16T09:10:41.190Z,19.20
2018-10-16T09:11:48.002Z,19.20
2018-10-16T09:12:53.589Z,19.20
2018-10-16T09:13:59.038Z,19.20
2018-10-16T09:15:04.814Z,19.20
2018-10-16T09:16:10.401Z,19.30
2018-10-16T09:17:15.890Z,19.40
2018-10-16T09:18:21.297Z,19.50
2018-10-16T09:19:26.848Z,19.50
2018-10-16T09:20:32.293Z,19.60
2018-10-16T09:21:37.810Z,19.70
2018-10-16T09:22:43.305Z,19.80
2018-10-16T09:23:48.761Z,19.90
2018-10-16T09:24:54.432Z,19.80
2018-10-16T09:25:59.858Z,19.90
2018-10-16T09:27:05.817Z,19.90
2018-10-16T09:28:11.269Z,20.00
2018-10-16T09:29:16.994Z,20.10
2018-10-16T09:30:22.462Z,20.20
2018-10-16T09:31:27.980Z,20.30
2018-10-16T09:32:33.483Z,20.50
2018-10-16T09:33:38.985Z,20.80
2018-10-16T09:34:44.386Z,20.90
2018-10-16T09:35:49.784Z,21.10
2018-10-16T09:36:55.326Z,21.20
2018-10-16T09:38:00.895Z,21.40
2018-10-16T09:39:10.180Z,21.50
2018-10-16T09:40:15.663Z,21.60
2018-10-16T09:41:21.276Z,21.80
2018-10-16T09:42:26.932Z,21.90
2018-10-16T09:43:32.389Z,21.60
2018-10-16T09:44:38.058Z,21.50
2018-10-16T09:45:43.477Z,21.50
2018-10-16T09:46:48.969Z,21.70
2018-10-16T09:47:54.438Z,21.80
2018-10-16T09:48:59.978Z,21.90
2018-10-16T09:50:06.297Z,22.00
2018-10-16T09:51:11.805Z,21.90
2018-10-16T09:52:17.350Z,22.10
2018-10-16T09:53:22.774Z,22.20
2018-10-16T09:54:28.232Z,22.30
2018-10-16T09:55:33.743Z,22.40
2018-10-16T09:56:39.239Z,22.40
2018-10-16T09:57:44.689Z,22.40
2018-10-16T09:58:50.269Z,22.20
2018-10-16T09:59:55.710Z,22.20
2018-10-16T10:01:06.342Z,22.20
2018-10-16T10:02:11.849Z,22.30
2018-10-16T10:03:17.305Z,22.40
2018-10-16T10:04:23.109Z,22.50
2018-10-16T10:05:28.550Z,22.50
2018-10-16T10:06:34.072Z,22.50
2018-10-16T10:07:39.514Z,22.50
2018-10-16T10:08:45.037Z,22.60
2018-10-16T10:09:50.461Z,22.60
2018-10-16T10:10:55.922Z,22.60
2018-10-16T10:12:01.401Z,22.70
2018-10-16T10:13:07.194Z,22.70
2018-10-16T10:14:12.662Z,22.90
2018-10-16T10:15:18.105Z,22.90
2018-10-16T10:16:23.762Z,23.00
2018-10-16T10:17:29.280Z,23.00
2018-10-16T10:18:34.744Z,23.00
2018-10-16T10:19:40.170Z,23.10
2018-10-16T10:20:45.623Z,23.10
2018-10-16T10:21:51.167Z,23.10
2018-10-16T10:22:56.642Z,23.20
2018-10-16T10:24:02.165Z,23.20
2018-10-16T10:25:07.967Z,23.20
2018-10-16T10:26:13.429Z,23.20
2018-10-16T10:27:18.988Z,23.20
2018-10-16T10:28:24.438Z,23.20
2018-10-16T10:29:29.904Z,23.30
2018-10-16T10:30:35.365Z,23.40
2018-10-16T10:31:40.808Z,23.30
2018-10-16T10:32:46.261Z,23.30
2018-10-16T10:33:51.915Z,23.20
2018-10-16T10:34:57.349Z,23.10
2018-10-16T10:36:02.825Z,23.00
2018-10-16T10:37:08.341Z,22.90
2018-10-16T10:38:13.932Z,22.80
2018-10-16T10:39:19.417Z,22.80
2018-10-16T10:40:24.936Z,22.80
2018-10-16T10:41:30.507Z,22.80
2018-10-16T10:42:36.025Z,22.80
2018-10-16T10:43:41.677Z,22.80
2018-10-16T10:44:47.117Z,22.80
2018-10-16T10:45:52.580Z,22.80
2018-10-16T10:46:58.157Z,22.80
2018-10-16T10:48:03.757Z,22.80
2018-10-16T10:49:09.497Z,22.90
2018-10-16T10:50:15.289Z,23.00
2018-10-16T10:51:21.044Z,23.00
2018-10-16T10:52:26.196Z,23.20
2018-10-16T10:53:31.640Z,23.30
2018-10-16T10:54:37.237Z,23.30
2018-10-16T10:55:42.735Z,23.40
2018-10-16T10:56:48.354Z,23.50
2018-10-16T10:57:53.698Z,23.60
2018-10-16T10:58:59.196Z,23.50
2018-10-16T11:00:05.165Z,23.50
2018-10-16T11:01:10.773Z,23.40
2018-10-16T11:02:16.237Z,23.40
2018-10-16T11:03:21.751Z,23.40
2018-10-16T11:04:27.158Z,23.40
2018-10-16T11:05:32.631Z,23.60
2018-10-16T11:06:38.121Z,23.60
2018-10-16T11:07:43.584Z,23.60
2018-10-16T11:08:49.128Z,23.60
2018-10-16T11:09:54.623Z,23.60
2018-10-16T11:11:00.097Z,23.70
2018-10-16T11:12:05.881Z,23.80
2018-10-16T11:13:11.342Z,23.90
2018-10-16T11:14:16.860Z,23.90
2018-10-16T11:15:22.365Z,23.80
2018-10-16T11:16:28.348Z,23.90
2018-10-16T11:17:33.930Z,23.90
2018-10-16T11:18:39.705Z,23.90
2018-10-16T11:19:45.331Z,23.90
2018-10-16T11:20:51.023Z,23.90
2018-10-16T11:21:56.597Z,23.90
2018-10-16T11:23:02.254Z,24.00
2018-10-16T11:24:08.227Z,24.00
2018-10-16T11:25:13.735Z,24.10
2018-10-16T11:26:19.285Z,24.10
2018-10-16T11:27:24.802Z,24.10
2018-10-16T11:28:30.251Z,24.10
2018-10-16T11:29:35.672Z,24.10
2018-10-16T11:30:41.245Z,24.00
2018-10-16T11:31:46.794Z,24.00
2018-10-16T11:32:52.381Z,24.10
2018-10-16T11:33:57.817Z,24.10
2018-10-16T11:35:03.250Z,24.10
2018-10-16T11:36:08.661Z,24.10
2018-10-16T11:37:14.299Z,24.30
2018-10-16T11:38:19.802Z,24.30
2018-10-16T11:39:25.223Z,24.30
2018-10-16T11:40:30.625Z,24.30
2018-10-16T11:41:36.137Z,24.30
2018-10-16T11:42:42.317Z,24.40
2018-10-16T11:43:47.888Z,24.40
2018-10-16T11:44:53.335Z,24.40
2018-10-16T11:45:58.767Z,24.50
2018-10-16T11:47:04.280Z,24.50
2018-10-16T11:48:09.788Z,24.60
2018-10-16T11:49:15.295Z,24.70
2018-10-16T11:50:20.835Z,24.60
2018-10-16T11:51:26.340Z,24.50
2018-10-16T11:52:31.849Z,24.50
2018-10-16T11:53:37.317Z,24.50
2018-10-16T11:54:42.944Z,24.40
2018-10-16T11:55:48.450Z,24.30
2018-10-16T11:56:53.841Z,24.30
2018-10-16T11:57:59.284Z,24.30
2018-10-16T11:59:04.891Z,24.30
2018-10-16T12:00:14.849Z,24.40
2018-10-16T12:01:20.609Z,24.40
2018-10-16T12:02:26.042Z,24.40
2018-10-16T12:03:31.486Z,24.40
2018-10-16T12:04:36.975Z,24.50
2018-10-16T12:05:42.542Z,24.50
2018-10-16T12:06:54.591Z,24.60
2018-10-16T12:08:00.291Z,24.60
2018-10-16T12:09:08.772Z,24.50
2018-10-16T12:10:14.264Z,24.40
2018-10-16T12:11:19.857Z,24.50
2018-10-16T12:12:25.341Z,24.60
2018-10-16T12:13:31.069Z,24.70
2018-10-16T12:14:36.663Z,24.70
2018-10-16T12:15:42.225Z,24.70
2018-10-16T12:16:55.978Z,24.70
2018-10-16T12:18:20.506Z,24.70
2018-10-16T12:19:29.907Z,24.70
2018-10-16T12:20:38.460Z,24.70
2018-10-16T12:21:44.001Z,24.70
2018-10-16T12:22:49.560Z,24.70
2018-10-16T12:23:55.170Z,24.80
2018-10-16T12:25:00.624Z,24.80
2018-10-16T12:26:06.296Z,24.80
2018-10-16T12:27:11.872Z,24.90
2018-10-16T12:28:17.358Z,24.90
2018-10-16T12:29:22.789Z,24.90
2018-10-16T12:30:28.210Z,24.90
2018-10-16T12:31:33.726Z,24.90
2018-10-16T12:32:39.179Z,24.90
2018-10-16T12:33:44.639Z,24.90
2018-10-16T12:34:50.097Z,24.90
2018-10-16T12:35:55.633Z,24.90
2018-10-16T12:37:01.152Z,24.90
2018-10-16T12:38:06.818Z,24.80
2018-10-16T12:39:12.349Z,24.90
2018-10-16T12:40:17.873Z,24.90
2018-10-16T12:41:23.349Z,24.90
2018-10-16T12:42:28.938Z,24.90
2018-10-16T12:43:34.639Z,25.00
2018-10-16T12:44:40.175Z,25.00
2018-10-16T12:45:45.629Z,25.00
2018-10-16T12:46:51.179Z,25.00
2018-10-16T12:47:56.830Z,24.90
2018-10-16T12:49:02.275Z,25.00
2018-10-16T12:50:08.031Z,25.00
2018-10-16T12:51:13.604Z,25.10
2018-10-16T12:52:18.945Z,25.00
2018-10-16T12:53:24.685Z,25.00
2018-10-16T12:54:30.210Z,24.90
2018-10-16T12:55:35.754Z,24.80
2018-10-16T12:56:41.248Z,24.90
2018-10-16T12:57:46.908Z,24.80
2018-10-16T12:58:52.461Z,24.90
2018-10-16T12:59:57.947Z,24.90
2018-10-16T13:01:03.496Z,25.00
2018-10-16T13:02:09.073Z,25.00
2018-10-16T13:03:14.785Z,24.90
2018-10-16T13:04:20.159Z,24.90
2018-10-16T13:05:25.641Z,24.90
2018-10-16T13:06:31.073Z,24.90
2018-10-16T13:07:37.824Z,24.90
2018-10-16T13:08:43.272Z,24.90
2018-10-16T13:09:48.858Z,24.80
2018-10-16T13:10:54.421Z,24.80
2018-10-16T13:11:59.925Z,24.70
2018-10-16T13:13:05.614Z,24.70
2018-10-16T13:14:11.167Z,24.70
2018-10-16T13:15:17.209Z,24.70
2018-10-16T13:16:22.701Z,24.70
2018-10-16T13:17:28.259Z,24.70
2018-10-16T13:18:33.598Z,24.80
2018-10-16T13:19:39.159Z,24.70
2018-10-16T13:20:44.618Z,24.60
2018-10-16T13:21:50.090Z,24.50
2018-10-16T13:22:55.641Z,24.50
2018-10-16T13:24:01.349Z,24.50
2018-10-16T13:25:09.169Z,24.50
2018-10-16T13:26:14.741Z,24.50
2018-10-16T13:27:20.219Z,24.40
2018-10-16T13:28:25.844Z,24.40
2018-10-16T13:29:31.470Z,24.40
2018-10-16T13:30:36.961Z,24.30
2018-10-16T13:31:42.400Z,24.30
2018-10-16T13:32:48.923Z,24.20
2018-10-16T13:33:54.480Z,24.20
2018-10-16T13:34:59.936Z,24.20
2018-10-16T13:36:05.602Z,24.10
2018-10-16T13:37:11.090Z,24.10
2018-10-16T13:38:16.572Z,24.00
2018-10-16T13:39:22.082Z,24.00
2018-10-16T13:40:27.568Z,23.90
2018-10-16T13:41:32.951Z,23.90
2018-10-16T13:42:38.603Z,23.90
2018-10-16T13:43:44.038Z,23.80
2018-10-16T13:44:49.578Z,23.80
2018-10-16T13:45:55.185Z,23.80
2018-10-16T13:47:00.539Z,23.80
2018-10-16T13:48:06.894Z,23.80
2018-10-16T13:49:12.373Z,23.80
2018-10-16T13:50:18.115Z,23.70
2018-10-16T13:51:23.577Z,23.70
2018-10-16T13:52:29.073Z,23.70
2018-10-16T13:53:34.794Z,23.70
2018-10-16T13:54:40.332Z,23.70
2018-10-16T13:55:45.799Z,23.70
2018-10-16T13:56:51.614Z,23.70
2018-10-16T13:57:57.120Z,23.70
2018-10-16T13:59:02.556Z,23.70
2018-10-16T14:00:19.018Z,23.60
2018-10-16T14:01:24.513Z,23.60
2018-10-16T14:02:29.960Z,23.60
2018-10-16T14:03:35.377Z,23.60
2018-10-16T14:04:40.839Z,23.60
2018-10-16T14:05:46.342Z,23.50
2018-10-16T14:06:51.982Z,23.50
2018-10-16T14:07:57.569Z,23.50
2018-10-16T14:09:03.072Z,23.50
2018-10-16T14:10:10.977Z,23.50
2018-10-16T14:11:16.693Z,23.50